Flight Track Log - Related Links

Times and Time Zones

All times are in EDT time to prevent confusion due to time zone crossing. See the SWA2970 flight status page for this flight to view local times or setup timezone preferences in your user account.

Time Position Orientation Groundspeed Altitude Reporting Facility
EDT Latitude Longitude Course Direction KTS MPH feet Rate Location/Type
Sat 12:51:29 AM 33.4333 -112.0333 248° West 166 191 1,700  Level Phoenix TRACON
Sat 12:52:24 AM 33.4167 -112.0833 248° West 206 237 3,200 1,794 Climbing Phoenix TRACON
Sat 12:53:16 AM 33.4014 -112.1511 255° West 234 269 4,900 2,336 Climbing Albuquerque Center
Sat 12:54:17 AM 33.3953 -112.2419 265° West 282 325 7,600 2,705 Climbing Albuquerque Center
Sat 12:55:18 AM 33.4047 -112.3386 277° West 292 336 10,400 2,508 Climbing Albuquerque Center
Sat 12:56:19 AM 33.4156 -112.4511 277° West 337 388 12,700 2,361 Climbing Albuquerque Center
Sat 12:57:20 AM 33.4275 -112.5703 277° West 357 411 15,200 2,727 Climbing Albuquerque Center
Sat 12:58:20 AM 33.4411 -112.6933 278° West 364 419 18,200 2,380 Climbing Albuquerque Center
Sat 12:59:21 AM 33.4525 -112.8150 276° West 367 422 20,000 2,115 Climbing Albuquerque Center
Sat 01:00:22 AM 33.4758 -112.9408 283° West 381 438 22,500 2,115 Climbing Albuquerque Center
Sat 01:01:23 AM 33.5000 -113.0675 283° West 386 444 24,300 1,820 Climbing Albuquerque Center
Sat 01:02:24 AM 33.5256 -113.1989 283° West 394 453 26,200 1,934 Climbing Albuquerque Center
Sat 01:03:24 AM 33.5508 -113.3322 283° West 402 463 28,200 1,537 Climbing Albuquerque Center
Sat 01:04:25 AM 33.5756 -113.4672 282° West 409 471 29,300 1,328 Climbing Albuquerque Center
Sat 01:05:26 AM 33.6019 -113.6067 283° West 422 486 30,900 1,623 Climbing Albuquerque Center
Sat 01:06:27 AM 33.6286 -113.7472 283° West 427 491 32,600 1,623 Climbing Albuquerque Center
Sat 01:07:28 AM 33.6528 -113.8836 282° West 421 484 34,200 1,289 Climbing Albuquerque Center
Sat 01:08:28 AM 33.6775 -114.0178 283° West 416 479 35,200 942 Climbing Albuquerque Center
Sat 01:09:29 AM 33.7417 -114.1678 297° West 433 498 36,100 443 Climbing Albuquerque Center
Sat 01:10:30 AM 33.8000 -114.2900 300° West 429 494 36,100  Level Albuquerque Center
Sat 01:11:31 AM 33.8600 -114.4117 301° West 427 491 36,100  Level Albuquerque Center
Sat 01:12:31 AM 33.9200 -114.5358 300° West 428 493 36,100  Level Albuquerque Center
Sat 01:13:42 AM 33.9950 -114.6867 301° West 425 489 36,100  Level Los Center
Sat 01:14:43 AM 34.0550 -114.8108 300° West 429 494 36,100  Level Los Center
Sat 01:15:44 AM 34.1150 -114.9336 301° West 427 491 36,100  Level Los Center
Sat 01:16:46 AM 34.1725 -115.0542 300° West 420 483 36,100  Level Los Center
Sat 01:17:47 AM 34.2314 -115.1775 300° West 424 488 36,100  Level Los Center
Sat 01:18:49 AM 34.2908 -115.2992 301° West 423 487 36,100  Level Los Center
Sat 01:19:50 AM 34.3489 -115.4225 300° West 423 487 36,100  Level Los Center
Sat 01:20:51 AM 34.4067 -115.5444 300° West 421 484 36,100  Level Los Center
Sat 01:21:53 AM 34.4664 -115.6689 300° West 422 486 36,100  Level Los Center
Sat 01:22:54 AM 34.5361 -115.8175 300° West 424 488 36,100  Level Los Center
Sat 01:23:55 AM 34.5961 -115.9414 300° West 425 489 36,100  Level Los Center
Sat 01:24:57 AM 34.6531 -116.0669 299° West 425 489 36,100  Level Los Center
Sat 01:25:58 AM 34.7117 -116.1894 300° West 422 486 36,100  Level Los Center
Sat 01:26:59 AM 34.7686 -116.3164 299° West 427 491 36,100  Level Los Center
Sat 01:28:00 AM 34.8278 -116.4383 301° West 421 484 36,100  Level Los Center
Sat 01:29:02 AM 34.8842 -116.5625 299° West 420 483 36,100  Level Los Center
Sat 01:30:03 AM 34.9414 -116.6861 299° West 420 483 36,100  Level Los Center
Sat 01:31:04 AM 34.9981 -116.8086 299° West 418 481 36,100  Level Los Center
Sat 01:32:06 AM 35.0656 -116.9558 299° West 417 480 36,100  Level Los Center
Sat 01:33:07 AM 35.1214 -117.0789 299° West 417 480 36,100  Level Los Center
Sat 01:34:08 AM 35.1781 -117.2019 299° West 418 481 36,100  Level Los Center
Sat 01:35:10 AM 35.2358 -117.3269 300° West 423 487 36,100  Level Los Center
Sat 01:36:11 AM 35.2928 -117.4514 299° West 424 488 36,100  Level Los Center
Sat 01:37:12 AM 35.3492 -117.5769 299° West 426 490 36,100  Level Los Center
Sat 01:38:13 AM 35.4153 -117.7289 298° West 427 491 36,100  Level Los Center
Sat 01:39:15 AM 35.4722 -117.8547 299° West 426 490 36,100  Level Los Center
Sat 01:40:16 AM 35.5283 -117.9806 299° West 423 487 36,100  Level Los Center
Sat 01:41:17 AM 35.5847 -118.1086 298° West 425 489 36,100  Level Los Center
Sat 01:42:18 AM 35.6408 -118.2361 298° West 426 490 36,100  Level Los Center
Sat 01:43:19 AM 35.6964 -118.3642 298° West 425 489 36,100  Level Los Center
Sat 01:44:21 AM 35.7531 -118.4922 299° West 426 490 36,100  Level Los Center
Sat 01:45:22 AM 35.8172 -118.6414 298° West 425 489 36,100  Level Los Center
Sat 01:46:35 AM 35.8736 -118.7714 298° West 427 491 36,100  Level Los Center
Sat 01:47:36 AM 35.9400 -118.9261 298° West 428 493 36,100 -49 Level Los Center
Sat 01:48:37 AM 35.9956 -119.0536 298° West 426 490 36,000 -50 Descending Los Center
Sat 01:49:35 AM 36.0481 -119.1783 298° West 419 482 36,000 50 Level Oakland Center
Sat 01:50:36 AM 36.1017 -119.3056 298° West 419 482 36,100 49 Climbing Oakland Center
Sat 01:51:37 AM 36.1556 -119.4331 298° West 420 483 36,100  Level Oakland Center
Sat 01:52:37 AM 36.2092 -119.5600 298° West 419 482 36,100  Level Oakland Center
Sat 01:53:38 AM 36.2633 -119.6881 298° West 420 483 36,100 -49 Level Oakland Center
Sat 01:54:39 AM 36.3169 -119.8147 298° West 419 482 36,000 -541 Descending Oakland Center
Sat 01:55:40 AM 36.3697 -119.9444 297° West 421 484 35,000 -992 Descending Oakland Center
Sat 01:56:40 AM 36.4233 -120.0711 298° West 420 483 34,000 -446 Descending Oakland Center
Sat 01:57:41 AM 36.4767 -120.1983 298° West 418 481 34,100 49 Climbing Oakland Center
Sat 01:58:42 AM 36.5306 -120.3283 297° West 423 487 34,100 -295 Level Oakland Center
Sat 01:59:43 AM 36.5950 -120.4858 297° West 428 493 33,500 -1,623 Descending Oakland Center
Sat 02:00:44 AM 36.6486 -120.6156 297° West 425 489 30,800 -2,678 Descending Oakland Center
Sat 02:01:44 AM 36.7022 -120.7467 297° West 426 490 28,100 -2,579 Descending Oakland Center
Sat 02:02:45 AM 36.7753 -120.8542 310° West 416 479 25,600 -2,508 Descending Oakland Center
Sat 02:03:46 AM 36.8625 -120.9508 318° Northwest 402 463 23,000 -2,479 Descending Oakland Center
Sat 02:04:46 AM 36.9425 -121.0414 318° Northwest 389 448 20,600 -2,380 Descending Oakland Center
Sat 02:05:47 AM 37.0197 -121.1303 317° Northwest 378 435 18,200 -2,311 Descending Oakland Center
Sat 02:06:48 AM 37.0936 -121.2167 317° Northwest 365 420 15,900 -2,213 Descending Oakland Center
Sat 02:07:49 AM 37.1656 -121.2986 318° Northwest 350 403 13,700 -2,182 Descending Oakland Center
Sat 02:08:49 AM 37.2353 -121.3794 317° Northwest 343 395 11,500 -1,835 Descending Oakland Center
Sat 02:09:50 AM 37.3017 -121.4572 317° Northwest 329 379 10,000 -1,426 Descending Oakland Center
Sat 02:10:51 AM 37.3547 -121.5192 317° Northwest 300 345 8,600 -1,532 Descending Oakland Center
Sat 02:11:24 AM 37.4000 -121.5667 320° Northwest 282 325 7,600 -1,484 Descending Northern TRACON
Sat 02:12:24 AM 37.4500 -121.6333 313° West 270 311 6,300 -750 Descending Northern TRACON
Sat 02:13:24 AM 37.5000 -121.7000 313° West 273 314 6,100 -190 Descending Northern TRACON
Sat 02:14:30 AM 37.5167 -121.8000 282° West 262 302 5,900 -810 Descending Northern TRACON
Sat 02:15:30 AM 37.5333 -121.8833 284° West 249 287 4,400 -900 Descending Northern TRACON
Sat 02:16:30 AM 37.5500 -121.9667 284° West 221 254 4,100 -474 Descending Northern TRACON
Sat 02:17:24 AM 37.5667 -122.0167 293° West 216 249 3,500 -632 Descending Northern TRACON
Sat 02:18:24 AM 37.6167 -122.0833 313° West 178 205 2,900 -750 Descending Northern TRACON
Sat 02:19:24 AM 37.6333 -122.1167 302° West 138 159 2,000 -800 Descending Northern TRACON
Sat 02:20:24 AM 37.6667 -122.1500 322° Northwest 128 147 1,300 -619 Descending Northern TRACON
Sat 02:21:30 AM 37.6833 -122.1833 302° West 124 143 700 -550 Descending Northern TRACON
Sat 02:22:24 AM 37.7000 -122.2167 302° West 125 144 200 -556 Descending Northern TRACON
Sat 02:24:00 AM 37.7167 -122.2167 270° West  Level FlightAware
Sat 02:31:00 AM 37.7213 -122.2207 270° West  Level Estimated

Login

Don't have an account? Register now (free) for customized features, flight alerts, and more!